Time;durP1;ratioP1;P1;durP2;ratioP2;P2;SDS_P1;SDS_P2;PMS_P1;PMS_P2;Temp;Humidity;BMP_temperature;BMP_pressure;BME280_temperature;BME280_humidity;BME280_pressure;Samples;Min_cycle;Max_cycle;Signal;HPM_P1;HPM_P2
2024/03/31 00:00:15;;;;;;;18.00;7.77;;;11.50;99.90;;;;;;5039093;28;20475;-81
2024/03/31 00:02:42;;;;;;;17.27;7.40;;;11.50;99.90;;;;;;5039575;28;20454;-82
2024/03/31 00:05:11;;;;;;;8.60;6.97;;;11.60;99.90;;;;;;5036238;28;20448;-80
2024/03/31 00:07:38;;;;;;;19.70;7.03;;;11.60;99.90;;;;;;5038432;28;20481;-81
2024/03/31 00:10:05;;;;;;;18.97;6.93;;;11.60;99.90;;;;;;5035681;28;20461;-82
2024/03/31 00:12:31;;;;;;;13.93;6.67;;;11.60;99.90;;;;;;5039239;28;20467;-81
2024/03/31 00:14:59;;;;;;;14.73;5.63;;;11.60;99.90;;;;;;5039752;28;20483;-80
2024/03/31 00:17:26;;;;;;;18.17;6.90;;;11.60;99.90;;;;;;5042307;28;20558;-83
2024/03/31 00:19:54;;;;;;;16.70;6.40;;;11.60;99.90;;;;;;5038611;28;20562;-81
2024/03/31 00:22:20;;;;;;;13.07;5.80;;;11.60;99.90;;;;;;5029855;28;20472;-81
2024/03/31 00:24:47;;;;;;;22.00;6.70;;;11.60;99.90;;;;;;5042276;28;20510;-83
2024/03/31 00:27:13;;;;;;;13.80;5.57;;;11.60;99.90;;;;;;5042167;28;20564;-82
2024/03/31 00:29:40;;;;;;;10.07;5.37;;;11.60;99.90;;;;;;5039999;28;20910;-82
2024/03/31 00:32:07;;;;;;;14.77;7.40;;;11.60;99.90;;;;;;5043576;28;20535;-82
2024/03/31 00:34:35;;;;;;;15.23;5.40;;;11.60;99.90;;;;;;5042151;28;20443;-82
2024/03/31 00:37:02;;;;;;;13.03;5.33;;;11.70;99.90;;;;;;5042992;28;20547;-84
2024/03/31 00:39:29;;;;;;;14.23;5.60;;;11.70;99.90;;;;;;5039920;28;20544;-81
2024/03/31 00:41:55;;;;;;;13.20;4.67;;;11.70;99.90;;;;;;5035952;28;20544;-81
2024/03/31 00:44:22;;;;;;;13.07;5.20;;;11.60;99.90;;;;;;5036106;28;20454;-82
2024/03/31 00:46:49;;;;;;;17.77;5.20;;;11.60;99.90;;;;;;5040548;28;20467;-83
2024/03/31 00:49:16;;;;;;;13.57;5.17;;;11.60;99.90;;;;;;5041515;28;20502;-85
2024/03/31 00:51:44;;;;;;;10.83;4.83;;;11.70;99.90;;;;;;5042778;28;20522;-83
2024/03/31 00:54:11;;;;;;;8.83;5.53;;;11.70;99.90;;;;;;5043017;28;20574;-80
2024/03/31 00:56:37;;;;;;;12.77;5.37;;;11.70;99.90;;;;;;5043000;28;20964;-83
2024/03/31 00:59:04;;;;;;;16.17;5.10;;;11.60;99.90;;;;;;5045162;28;20534;-81
2024/03/31 01:01:31;;;;;;;12.67;5.60;;;11.70;99.90;;;;;;5046133;28;20472;-79
2024/03/31 01:03:58;;;;;;;11.20;4.90;;;11.70;99.90;;;;;;5048901;28;20522;-82
2024/03/31 01:06:24;;;;;;;8.93;4.60;;;11.70;99.90;;;;;;5042545;28;20507;-82
2024/03/31 01:08:54;;;;;;;12.80;5.20;;;11.70;99.90;;;;;;5046516;28;20504;-84
2024/03/31 01:11:21;;;;;;;12.40;4.57;;;11.70;99.90;;;;;;5049930;28;20563;-82
2024/03/31 01:13:49;;;;;;;16.43;4.57;;;11.70;99.90;;;;;;5046401;28;21808;-83
2024/03/31 01:16:16;;;;;;;11.73;4.60;;;11.70;1.00;;;;;;5047725;28;20432;-80
2024/03/31 01:18:43;;;;;;;16.50;5.50;;;11.70;1.00;;;;;;5041211;28;20562;-81
2024/03/31 01:21:11;;;;;;;13.67;6.63;;;11.60;1.00;;;;;;5031305;28;20540;-86
2024/03/31 01:23:45;;;;;;;15.03;6.03;;;11.60;1.00;;;;;;5041719;28;20485;-81
2024/03/31 01:26:13;;;;;;;11.93;5.43;;;11.60;1.00;;;;;;5045899;28;21184;-81
2024/03/31 01:28:40;;;;;;;10.77;5.53;;;11.70;1.00;;;;;;5039724;28;20589;-82
2024/03/31 01:31:07;;;;;;;10.03;5.33;;;11.60;1.00;;;;;;5045140;28;20550;-81
2024/03/31 01:33:34;;;;;;;10.30;5.37;;;11.60;1.00;;;;;;5042346;28;20573;-81
2024/03/31 01:36:00;;;;;;;16.23;5.37;;;11.60;1.00;;;;;;5043770;28;21174;-82
2024/03/31 01:38:27;;;;;;;14.17;6.80;;;11.60;1.00;;;;;;5041307;28;20563;-81
2024/03/31 01:40:54;;;;;;;21.37;5.40;;;11.60;1.00;;;;;;5044232;28;20447;-83
2024/03/31 01:43:22;;;;;;;13.00;5.43;;;11.60;1.00;;;;;;5040198;28;20618;-82
2024/03/31 01:45:49;;;;;;;14.20;5.97;;;11.60;1.00;;;;;;5041605;28;20542;-81
2024/03/31 01:48:16;;;;;;;21.00;7.13;;;11.60;1.00;;;;;;5045043;28;20647;-82
2024/03/31 01:50:42;;;;;;;9.97;5.03;;;11.60;1.00;;;;;;5041812;28;20439;-81
2024/03/31 01:53:10;;;;;;;16.43;7.00;;;11.50;1.00;;;;;;5046560;28;20483;-82
2024/03/31 01:55:36;;;;;;;15.07;5.90;;;11.50;1.00;;;;;;5041495;28;20456;-83
2024/03/31 01:58:03;;;;;;;14.60;6.07;;;11.40;1.00;;;;;;5041198;28;20511;-83
2024/03/31 02:00:31;;;;;;;14.13;5.67;;;11.40;1.00;;;;;;5037951;28;20456;-81
2024/03/31 02:02:59;;;;;;;11.43;5.13;;;11.40;1.00;;;;;;5041820;28;20467;-80
2024/03/31 02:05:25;;;;;;;14.03;6.00;;;11.50;1.00;;;;;;5040298;28;20871;-81
2024/03/31 02:07:52;;;;;;;21.87;6.40;;;11.50;1.00;;;;;;5041049;28;20479;-81
2024/03/31 02:10:19;;;;;;;13.50;5.80;;;11.50;1.00;;;;;;5041050;28;20457;-82
2024/03/31 02:12:46;;;;;;;18.57;6.40;;;11.40;1.00;;;;;;5041361;28;21119;-81
2024/03/31 02:15:12;;;;;;;20.70;6.37;;;11.40;1.00;;;;;;5040302;28;20546;-80
2024/03/31 02:17:40;;;;;;;11.60;5.70;;;11.40;1.00;;;;;;5040694;28;20513;-81
2024/03/31 02:20:09;;;;;;;11.17;6.03;;;11.40;1.00;;;;;;5040251;28;20457;-81
2024/03/31 02:22:37;;;;;;;11.03;5.77;;;11.40;22.00;;;;;;5038789;28;20475;-82
2024/03/31 02:25:04;;;;;;;13.20;5.03;;;11.40;13.70;;;;;;5054713;28;20456;-81
2024/03/31 02:27:31;;;;;;;17.10;6.77;;;11.40;45.20;;;;;;5038949;28;20498;-81
2024/03/31 02:29:58;;;;;;;20.23;5.47;;;11.40;19.90;;;;;;5040736;28;21056;-81
2024/03/31 02:32:25;;;;;;;11.83;5.70;;;11.40;12.60;;;;;;5040512;28;20514;-80
2024/03/31 02:34:53;;;;;;;15.57;6.10;;;11.30;30.30;;;;;;5047203;28;20503;-80
2024/03/31 02:37:19;;;;;;;16.93;5.87;;;11.30;62.30;;;;;;5041818;28;20483;-83
2024/03/31 02:39:47;;;;;;;29.20;6.23;;;11.30;80.10;;;;;;5041409;28;20444;-81
2024/03/31 02:42:13;;;;;;;11.33;5.00;;;11.30;54.40;;;;;;5044915;28;21036;-80
2024/03/31 02:44:40;;;;;;;8.03;5.10;;;11.20;99.90;;;;;;5048339;28;20487;-81
2024/03/31 02:47:06;;;;;;;11.00;5.60;;;11.30;80.30;;;;;;5045789;28;20511;-81
2024/03/31 02:49:33;;;;;;;10.47;4.60;;;11.30;27.50;;;;;;5046630;28;20469;-84
2024/03/31 02:52:01;;;;;;;9.77;5.00;;;11.20;33.30;;;;;;5050021;28;21445;-80
2024/03/31 02:54:28;;;;;;;9.73;5.00;;;11.20;29.70;;;;;;5049394;28;20491;-84
2024/03/31 02:56:55;;;;;;;10.93;5.20;;;11.20;38.40;;;;;;5046526;28;20869;-80
2024/03/31 02:59:22;;;;;;;17.07;5.17;;;11.20;77.10;;;;;;5042861;28;20935;-81
2024/03/31 03:01:48;;;;;;;15.47;5.30;;;11.10;45.50;;;;;;5044116;28;21174;-84
2024/03/31 03:04:15;;;;;;;13.50;6.10;;;11.10;46.50;;;;;;5040299;28;21486;-82
2024/03/31 03:06:41;;;;;;;10.47;5.60;;;11.10;38.10;;;;;;5045390;28;20479;-80
2024/03/31 03:09:10;;;;;;;19.80;5.53;;;11.10;2.60;;;;;;5022634;28;20574;-81
2024/03/31 03:11:36;;;;;;;9.87;4.23;;;11.00;72.50;;;;;;5044373;28;20488;-80
2024/03/31 03:14:03;;;;;;;12.90;5.27;;;11.00;89.30;;;;;;5042530;28;20453;-80
2024/03/31 03:16:29;;;;;;;7.13;4.73;;;11.00;87.60;;;;;;5041529;28;20579;-81
2024/03/31 03:18:56;;;;;;;15.03;4.90;;;10.90;40.80;;;;;;5040255;28;20535;-82
2024/03/31 03:21:22;;;;;;;8.83;4.30;;;10.90;53.60;;;;;;5042347;28;20455;-82
2024/03/31 03:23:50;;;;;;;18.90;4.57;;;10.90;40.20;;;;;;5044881;28;20476;-82
2024/03/31 03:26:17;;;;;;;7.27;4.20;;;10.90;45.10;;;;;;5037705;28;20542;-82
2024/03/31 03:28:44;;;;;;;16.90;5.17;;;10.80;52.50;;;;;;5039466;28;20598;-81
2024/03/31 03:31:10;;;;;;;13.70;5.00;;;10.80;84.70;;;;;;5039957;28;20446;-79
2024/03/31 03:33:38;;;;;;;18.30;5.20;;;10.70;99.90;;;;;;5039145;28;20957;-81
2024/03/31 03:36:05;;;;;;;16.73;5.77;;;10.70;99.90;;;;;;5036470;28;20462;-81
2024/03/31 03:38:32;;;;;;;12.10;4.40;;;10.70;99.90;;;;;;5045266;28;20498;-81
2024/03/31 03:41:00;;;;;;;9.70;4.67;;;10.70;99.90;;;;;;5026250;28;20445;-81
2024/03/31 03:43:32;;;;;;;10.00;4.93;;;10.70;99.90;;;;;;5042264;28;20548;-79
2024/03/31 03:45:59;;;;;;;8.07;4.13;;;10.70;99.90;;;;;;5039406;28;20450;-81
2024/03/31 03:48:27;;;;;;;14.57;5.57;;;10.60;99.90;;;;;;5040337;28;20478;-80
2024/03/31 03:50:53;;;;;;;10.90;4.33;;;10.60;99.90;;;;;;5041045;28;20447;-80
2024/03/31 03:53:20;;;;;;;17.37;3.90;;;10.60;99.90;;;;;;5039042;28;20814;-81
2024/03/31 03:55:47;;;;;;;15.63;6.03;;;10.60;29.40;;;;;;5032449;28;20497;-81
2024/03/31 03:58:14;;;;;;;9.17;4.40;;;10.60;1.00;;;;;;5044569;28;20876;-81
2024/03/31 04:00:42;;;;;;;12.33;4.63;;;10.60;1.00;;;;;;5041428;28;20823;-82
2024/03/31 04:03:09;;;;;;;6.37;4.20;;;10.60;1.00;;;;;;5039877;28;20464;-81
2024/03/31 04:05:36;;;;;;;9.83;5.50;;;10.60;3.80;;;;;;5035591;28;21039;-80
2024/03/31 04:08:03;;;;;;;11.63;4.07;;;10.60;2.10;;;;;;5033511;28;20570;-81
2024/03/31 04:10:30;;;;;;;9.50;4.00;;;10.60;1.00;;;;;;5018193;28;20551;-81
2024/03/31 04:12:57;;;;;;;6.17;4.20;;;10.50;1.00;;;;;;5034506;28;20526;-81
2024/03/31 04:15:24;;;;;;;9.00;4.50;;;10.50;1.00;;;;;;5035175;28;20818;-78
2024/03/31 04:17:51;;;;;;;8.20;5.30;;;10.40;1.00;;;;;;5032773;28;20559;-80
2024/03/31 04:20:19;;;;;;;8.93;4.07;;;10.40;1.00;;;;;;5033585;28;20833;-79
2024/03/31 04:22:45;;;;;;;9.23;3.60;;;10.30;1.00;;;;;;5034031;28;20481;-79
2024/03/31 04:25:12;;;;;;;13.13;4.53;;;10.30;1.00;;;;;;5033453;28;20551;-80
2024/03/31 04:27:38;;;;;;;8.30;4.63;;;10.30;1.00;;;;;;5034155;28;20464;-79
2024/03/31 04:30:07;;;;;;;14.90;4.90;;;10.30;1.00;;;;;;5035538;28;20849;-80
2024/03/31 04:32:33;;;;;;;6.90;4.10;;;10.30;8.50;;;;;;5041078;28;20435;-81
2024/03/31 04:35:02;;;;;;;9.30;4.17;;;10.30;93.70;;;;;;5034958;28;20454;-81
2024/03/31 04:37:28;;;;;;;12.60;4.60;;;10.30;98.50;;;;;;5034882;28;20523;-80
2024/03/31 04:39:56;;;;;;;10.57;4.33;;;10.30;75.00;;;;;;5037951;28;20529;-81
2024/03/31 04:42:22;;;;;;;11.00;4.27;;;10.30;53.20;;;;;;5038178;28;20460;-81
2024/03/31 04:44:51;;;;;;;5.87;3.47;;;10.30;1.00;;;;;;5035675;28;21212;-81
2024/03/31 04:47:18;;;;;;;7.83;4.50;;;10.30;1.00;;;;;;5037043;28;20473;-83
2024/03/31 04:49:47;;;;;;;11.10;5.07;;;10.20;1.00;;;;;;5035289;28;20492;-81
2024/03/31 04:52:14;;;;;;;9.00;4.50;;;10.20;1.00;;;;;;5039233;28;20518;-81
2024/03/31 04:54:41;;;;;;;8.73;3.90;;;10.20;1.00;;;;;;5035524;28;20562;-81
2024/03/31 04:57:08;;;;;;;8.90;4.57;;;10.20;1.00;;;;;;5042843;28;21099;-81
2024/03/31 04:59:36;;;;;;;14.13;5.20;;;10.10;1.00;;;;;;5034073;28;20924;-81
2024/03/31 05:02:02;;;;;;;6.03;3.90;;;10.00;1.00;;;;;;5036376;28;20452;-81
2024/03/31 05:04:30;;;;;;;10.60;4.17;;;10.10;1.00;;;;;;5030128;28;20534;-81
2024/03/31 05:06:56;;;;;;;11.53;5.43;;;10.00;11.10;;;;;;5036213;28;20498;-81
2024/03/31 05:09:25;;;;;;;9.47;4.93;;;10.10;30.60;;;;;;5035383;28;20478;-81
2024/03/31 05:11:51;;;;;;;11.73;5.60;;;10.10;99.90;;;;;;5037396;28;20960;-80
2024/03/31 05:14:18;;;;;;;8.60;4.80;;;10.10;1.70;;;;;;5035664;28;20555;-79
2024/03/31 05:16:44;;;;;;;7.67;4.13;;;10.10;1.00;;;;;;5033204;28;20503;-82
2024/03/31 05:19:11;;;;;;;9.67;4.53;;;10.00;6.00;;;;;;5033572;28;20444;-80
2024/03/31 05:21:37;;;;;;;7.27;4.53;;;10.10;24.40;;;;;;5033862;28;20448;-81
2024/03/31 05:24:06;;;;;;;8.67;5.43;;;10.00;24.20;;;;;;5039940;28;20473;-81
2024/03/31 05:26:34;;;;;;;10.50;4.30;;;10.10;99.90;;;;;;5033095;28;20539;-81
2024/03/31 05:29:01;;;;;;;9.77;4.77;;;10.10;99.90;;;;;;5033284;28;20564;-80
2024/03/31 05:31:28;;;;;;;6.43;4.57;;;10.10;97.50;;;;;;5035564;28;20919;-80
2024/03/31 05:33:55;;;;;;;9.00;4.13;;;10.20;99.90;;;;;;5033532;28;20502;-80
2024/03/31 05:36:21;;;;;;;4.50;3.97;;;10.20;19.10;;;;;;5033747;28;20839;-81
2024/03/31 05:38:48;;;;;;;13.53;4.63;;;10.10;1.00;;;;;;5034835;28;20520;-82
2024/03/31 05:41:14;;;;;;;9.63;4.67;;;10.10;1.00;;;;;;5035066;28;20447;-80
2024/03/31 05:43:43;;;;;;;12.20;5.40;;;10.10;78.70;;;;;;5037595;28;20527;-80
2024/03/31 05:46:09;;;;;;;11.60;4.23;;;10.20;99.90;;;;;;5043396;28;20547;-81
2024/03/31 05:48:36;;;;;;;12.53;4.20;;;10.20;99.90;;;;;;5037976;28;20486;-80
2024/03/31 05:51:02;;;;;;;10.37;4.00;;;10.30;99.90;;;;;;5038911;28;20578;-81
2024/03/31 05:53:29;;;;;;;9.70;4.73;;;10.30;99.90;;;;;;5039723;28;21024;-81
2024/03/31 05:55:56;;;;;;;15.83;5.20;;;10.40;1.00;;;;;;5036555;28;20498;-82
2024/03/31 05:58:23;;;;;;;9.70;5.17;;;10.40;1.00;;;;;;5038333;28;20562;-82
2024/03/31 06:00:51;;;;;;;12.60;4.60;;;10.50;1.00;;;;;;5038889;28;20479;-80
2024/03/31 06:03:18;;;;;;;7.47;5.60;;;10.50;1.00;;;;;;5038969;28;20553;-80
2024/03/31 06:05:45;;;;;;;10.83;4.97;;;10.50;1.00;;;;;;5040943;28;20455;-81
2024/03/31 06:08:12;;;;;;;8.57;5.13;;;10.50;1.00;;;;;;5038330;28;21020;-80
2024/03/31 06:10:39;;;;;;;12.13;5.80;;;10.50;1.00;;;;;;5046132;28;20550;-81
2024/03/31 06:13:06;;;;;;;6.97;5.20;;;10.60;77.70;;;;;;5046426;28;20448;-82
2024/03/31 06:15:32;;;;;;;11.80;5.90;;;10.50;99.90;;;;;;5046770;28;20452;-80
2024/03/31 06:18:00;;;;;;;10.07;5.50;;;10.60;99.90;;;;;;5046572;28;20489;-82
2024/03/31 06:20:27;;;;;;;16.07;5.50;;;10.50;99.90;;;;;;5044770;28;20519;-80
2024/03/31 06:22:54;;;;;;;12.63;6.47;;;10.60;99.90;;;;;;5042825;28;20502;-81
2024/03/31 06:25:20;;;;;;;10.40;6.20;;;10.60;1.00;;;;;;5047555;28;20510;-79
2024/03/31 06:27:47;;;;;;;11.17;5.70;;;10.70;1.00;;;;;;5043011;28;21078;-80
2024/03/31 06:30:13;;;;;;;9.70;5.47;;;10.70;1.00;;;;;;5044126;28;20482;-81
2024/03/31 06:32:40;;;;;;;9.00;5.90;;;10.70;1.00;;;;;;5044476;28;21576;-80
2024/03/31 06:35:08;;;;;;;12.60;7.20;;;10.80;99.90;;;;;;5042176;28;20471;-82
2024/03/31 06:37:35;;;;;;;6.53;5.10;;;10.80;1.00;;;;;;5043982;28;20597;-80
2024/03/31 06:40:01;;;;;;;6.13;5.53;;;10.80;99.90;;;;;;5045353;28;20470;-81
2024/03/31 06:42:28;;;;;;;9.63;6.23;;;10.80;1.00;;;;;;5047771;28;20472;-81
2024/03/31 06:44:54;;;;;;;9.57;6.90;;;10.90;1.00;;;;;;5039272;28;20566;-82
2024/03/31 06:47:22;;;;;;;6.83;5.63;;;10.90;1.00;;;;;;5044577;28;20472;-82
2024/03/31 06:49:48;;;;;;;11.43;7.20;;;10.80;1.00;;;;;;5040931;28;20496;-82
2024/03/31 06:52:16;;;;;;;12.30;7.20;;;10.90;1.00;;;;;;5038206;28;20585;-81
2024/03/31 06:54:43;;;;;;;9.03;7.37;;;10.90;1.00;;;;;;5041290;28;20445;-81
2024/03/31 06:57:10;;;;;;;15.90;6.67;;;10.90;1.00;;;;;;5042513;28;20474;-79
2024/03/31 06:59:36;;;;;;;13.77;6.40;;;10.90;1.00;;;;;;5039722;28;20496;-82
2024/03/31 07:02:03;;;;;;;8.07;6.70;;;10.90;1.00;;;;;;5042633;28;20482;-82
2024/03/31 07:04:29;;;;;;;13.18;7.70;;;11.00;11.90;;;;;;5044626;28;20451;-81
2024/03/31 07:06:57;;;;;;;16.07;7.40;;;11.10;1.00;;;;;;5021070;28;20250;-82
2024/03/31 07:09:24;;;;;;;12.30;7.87;;;11.10;1.00;;;;;;5039316;28;20476;-81
2024/03/31 07:11:52;;;;;;;16.40;8.00;;;11.10;1.00;;;;;;5042140;28;20464;-83
2024/03/31 07:14:18;;;;;;;12.53;7.23;;;11.10;1.00;;;;;;5039442;28;20492;-82
2024/03/31 07:16:45;;;;;;;13.00;8.33;;;11.20;99.90;;;;;;5037879;28;20454;-81
2024/03/31 07:19:11;;;;;;;7.80;7.00;;;11.30;99.90;;;;;;5035839;28;20448;-79
2024/03/31 07:21:38;;;;;;;12.90;6.30;;;11.30;99.90;;;;;;5036240;28;20567;-81
2024/03/31 07:24:05;;;;;;;16.07;7.57;;;11.30;1.00;;;;;;5035566;28;21228;-79
2024/03/31 07:26:33;;;;;;;9.37;6.70;;;11.40;1.00;;;;;;5035003;28;20449;-81
2024/03/31 07:28:59;;;;;;;12.67;7.80;;;11.40;1.00;;;;;;5033433;28;20474;-80
2024/03/31 07:31:27;;;;;;;13.60;7.70;;;11.50;1.00;;;;;;5033365;28;20447;-80
2024/03/31 07:33:53;;;;;;;10.70;7.50;;;11.60;99.90;;;;;;5020338;28;20502;-80
2024/03/31 07:36:20;;;;;;;8.67;7.00;;;11.70;99.90;;;;;;5037013;28;20468;-81
2024/03/31 07:38:46;;;;;;;21.10;8.67;;;11.80;99.90;;;;;;5035263;28;20474;-81
2024/03/31 07:41:14;;;;;;;8.77;7.00;;;11.90;99.90;;;;;;5039017;28;20441;-81
2024/03/31 07:43:41;;;;;;;12.00;7.20;;;12.10;1.00;;;;;;5038590;28;20532;-81
2024/03/31 07:46:08;;;;;;;13.17;7.27;;;12.20;1.00;;;;;;5034578;28;20928;-80
2024/03/31 07:48:35;;;;;;;12.17;6.90;;;12.30;1.00;;;;;;5018503;28;20496;-81
2024/03/31 07:51:02;;;;;;;6.80;5.57;;;12.40;1.00;;;;;;5040957;28;20487;-80
2024/03/31 07:53:28;;;;;;;8.03;6.00;;;12.40;99.90;;;;;;5019285;28;20444;-80
2024/03/31 07:55:58;;;;;;;8.27;5.20;;;12.50;99.90;;;;;;5038389;28;20471;-81
2024/03/31 07:58:25;;;;;;;8.83;6.10;;;12.50;99.90;;;;;;5044649;28;20508;-81
2024/03/31 08:00:55;;;;;;;9.83;5.00;;;12.70;99.90;;;;;;5035902;28;21281;-83
2024/03/31 08:03:21;;;;;;;8.53;4.63;;;12.90;99.90;;;;;;5037857;28;20454;-81
2024/03/31 08:05:48;;;;;;;13.13;5.60;;;13.00;99.90;;;;;;5035852;28;21424;-83
2024/03/31 08:08:15;;;;;;;7.70;4.30;;;13.00;1.00;;;;;;5038052;28;20503;-82
2024/03/31 08:10:43;;;;;;;9.93;4.87;;;13.10;1.00;;;;;;5037926;28;20511;-82
2024/03/31 08:13:09;;;;;;;9.87;4.47;;;13.10;1.00;;;;;;5043406;28;20474;-82
2024/03/31 08:15:36;;;;;;;6.20;5.00;;;13.30;1.00;;;;;;5041078;28;20572;-80
2024/03/31 08:18:05;;;;;;;9.40;5.83;;;13.30;1.00;;;;;;5046419;28;20515;-81
2024/03/31 08:20:33;;;;;;;11.77;4.70;;;13.40;1.00;;;;;;5038746;28;22311;-83
2024/03/31 08:22:59;;;;;;;5.00;4.50;;;13.60;1.00;;;;;;5043177;28;20882;-82
2024/03/31 08:25:26;;;;;;;12.10;5.53;;;13.60;1.00;;;;;;5040015;28;20440;-81
2024/03/31 08:27:52;;;;;;;11.87;5.63;;;13.60;1.00;;;;;;5039398;28;20506;-82
2024/03/31 08:30:20;;;;;;;13.27;5.83;;;13.70;99.90;;;;;;5041428;28;20513;-82
2024/03/31 08:32:46;;;;;;;6.90;4.37;;;13.70;99.90;;;;;;5024073;28;21143;-82
2024/03/31 08:35:15;;;;;;;8.67;4.33;;;13.80;99.90;;;;;;5043284;28;20452;-83
2024/03/31 08:37:41;;;;;;;8.73;4.70;;;13.80;99.90;;;;;;5039542;28;20509;-81
2024/03/31 08:40:09;;;;;;;11.13;4.50;;;13.80;99.90;;;;;;5043478;28;21237;-80
2024/03/31 08:42:43;;;;;;;10.70;4.77;;;13.90;99.90;;;;;;5040605;28;20455;-81
2024/03/31 08:45:13;;;;;;;7.77;4.90;;;14.00;99.90;;;;;;5044150;28;20445;-81
2024/03/31 08:47:42;;;;;;;10.60;4.20;;;14.00;99.90;;;;;;5040522;28;20493;-81
2024/03/31 08:50:10;;;;;;;10.50;4.30;;;14.10;99.90;;;;;;5041766;28;20478;-80
2024/03/31 08:52:38;;;;;;;13.00;4.60;;;14.10;99.90;;;;;;5045378;28;20446;-82
2024/03/31 08:55:07;;;;;;;8.10;3.87;;;14.20;99.90;;;;;;5024278;28;20642;-82
2024/03/31 08:57:33;;;;;;;12.27;3.83;;;14.20;99.90;;;;;;5042826;28;20571;-82
2024/03/31 09:00:00;;;;;;;4.77;3.30;;;14.20;99.90;;;;;;5043110;28;20449;-83
2024/03/31 09:02:26;;;;;;;10.63;4.53;;;14.30;99.90;;;;;;5041829;28;20558;-81
2024/03/31 09:04:53;;;;;;;9.63;3.87;;;14.30;99.90;;;;;;5041114;28;20543;-80
2024/03/31 09:07:20;;;;;;;9.60;3.53;;;14.30;99.90;;;;;;5037487;28;20514;-82
2024/03/31 09:09:49;;;;;;;7.00;4.30;;;14.50;99.90;;;;;;5037873;28;20549;-82
2024/03/31 09:12:15;;;;;;;15.57;4.80;;;14.50;99.90;;;;;;5038947;28;20449;-81
2024/03/31 09:14:43;;;;;;;13.67;3.93;;;14.50;99.90;;;;;;5036360;28;20556;-82
2024/03/31 09:17:10;;;;;;;10.60;3.57;;;14.50;99.90;;;;;;5040721;28;20474;-80
2024/03/31 09:19:37;;;;;;;13.53;4.13;;;14.50;99.90;;;;;;5040842;28;20568;-82
2024/03/31 09:22:03;;;;;;;9.43;3.43;;;14.60;99.90;;;;;;5046706;28;20466;-81
2024/03/31 09:24:31;;;;;;;13.77;4.30;;;14.40;99.90;;;;;;5041966;28;20459;-82
2024/03/31 09:26:59;;;;;;;10.30;4.23;;;14.40;99.90;;;;;;5038483;28;20483;-80
2024/03/31 09:29:28;;;;;;;8.67;3.53;;;14.50;99.90;;;;;;5036900;28;20563;-81
2024/03/31 09:32:04;;;;;;;11.60;4.27;;;14.60;99.90;;;;;;5041253;28;20565;-81
2024/03/31 09:34:31;;;;;;;12.07;3.93;;;14.60;99.90;;;;;;5038602;28;20895;-80
2024/03/31 09:36:58;;;;;;;9.73;3.90;;;14.70;99.90;;;;;;5022699;28;20909;-81
2024/03/31 09:39:25;;;;;;;9.77;3.93;;;14.80;99.90;;;;;;5039553;28;20448;-81
2024/03/31 09:41:53;;;;;;;11.33;4.00;;;14.90;99.90;;;;;;5038072;28;20449;-81
2024/03/31 09:44:22;;;;;;;9.77;3.80;;;14.90;99.90;;;;;;5040616;28;20456;-80
2024/03/31 09:46:49;;;;;;;8.40;4.50;;;15.00;99.90;;;;;;5039116;28;20508;-84
2024/03/31 09:49:22;;;;;;;17.30;4.50;;;15.00;99.90;;;;;;5038809;28;20453;-81
2024/03/31 09:51:52;;;;;;;11.23;4.17;;;15.00;99.90;;;;;;5041542;28;20487;-80
2024/03/31 09:54:23;;;;;;;12.23;4.57;;;15.00;99.90;;;;;;5019645;28;20447;-81
2024/03/31 09:57:01;;;;;;;8.00;3.80;;;15.00;99.90;;;;;;5037005;28;20447;-80
2024/03/31 09:59:30;;;;;;;7.43;4.00;;;15.20;99.90;;;;;;5043833;28;20501;-80
2024/03/31 10:01:57;;;;;;;15.20;4.20;;;15.30;99.90;;;;;;5043727;28;20509;-79
2024/03/31 10:04:37;;;;;;;11.53;4.57;;;15.40;99.90;;;;;;5040105;28;20504;-79
2024/03/31 10:07:04;;;;;;;15.27;4.43;;;15.30;99.90;;;;;;5040688;28;20554;-80
2024/03/31 10:09:32;;;;;;;15.47;4.30;;;15.30;99.90;;;;;;5038600;28;20473;-79
2024/03/31 10:12:00;;;;;;;9.87;4.40;;;15.40;99.90;;;;;;5036853;28;20567;-81
2024/03/31 10:14:30;;;;;;;9.30;3.83;;;15.40;99.90;;;;;;5042466;28;20553;-82
2024/03/31 10:16:57;;;;;;;10.00;3.77;;;15.40;99.90;;;;;;5043187;28;20942;-81
2024/03/31 10:19:25;;;;;;;12.47;4.20;;;15.50;99.90;;;;;;5041570;28;20446;-81
2024/03/31 10:21:53;;;;;;;17.13;4.57;;;15.60;99.90;;;;;;5043098;28;20448;-81
2024/03/31 10:24:21;;;;;;;9.97;4.43;;;15.70;99.90;;;;;;5046742;28;20487;-83
2024/03/31 10:26:49;;;;;;;7.10;3.73;;;15.70;99.90;;;;;;5043696;28;20531;-82
2024/03/31 10:29:17;;;;;;;14.80;4.13;;;15.80;99.90;;;;;;5040427;28;20510;-81
2024/03/31 10:31:45;;;;;;;9.77;4.33;;;15.80;99.90;;;;;;5040187;28;21289;-79
2024/03/31 10:34:13;;;;;;;7.23;3.80;;;15.80;99.90;;;;;;5044669;28;20470;-81
2024/03/31 10:36:41;;;;;;;7.23;3.13;;;15.80;99.90;;;;;;5039816;28;20454;-79
2024/03/31 10:39:10;;;;;;;8.13;3.30;;;15.80;99.90;;;;;;5039455;28;20546;-79
2024/03/31 10:41:36;;;;;;;15.10;3.97;;;15.80;99.90;;;;;;5039093;28;20469;-80
2024/03/31 10:44:04;;;;;;;8.83;3.77;;;15.80;99.90;;;;;;5042545;28;20582;-82
2024/03/31 10:46:34;;;;;;;10.43;3.90;;;15.80;99.90;;;;;;5036340;28;20465;-80
2024/03/31 10:49:03;;;;;;;10.13;3.40;;;15.80;99.90;;;;;;5038887;28;20460;-81
2024/03/31 10:51:32;;;;;;;7.03;3.50;;;15.80;99.90;;;;;;5041650;28;20520;-80
2024/03/31 10:53:59;;;;;;;7.43;2.97;;;15.80;99.90;;;;;;5040492;28;20457;-80
2024/03/31 10:56:26;;;;;;;9.17;3.00;;;15.80;99.90;;;;;;5036846;28;21135;-80
2024/03/31 10:58:53;;;;;;;13.10;3.77;;;15.90;99.90;;;;;;5040221;28;20479;-81
2024/03/31 11:01:19;;;;;;;13.30;3.80;;;15.80;99.90;;;;;;5040769;28;20535;-80
2024/03/31 11:03:47;;;;;;;7.70;3.10;;;15.80;99.90;;;;;;5035915;28;20513;-80
2024/03/31 11:06:16;;;;;;;9.20;3.70;;;15.80;99.90;;;;;;5039062;28;20551;-80
2024/03/31 11:08:44;;;;;;;9.90;3.63;;;15.80;99.90;;;;;;5035900;28;20472;-81
2024/03/31 11:11:11;;;;;;;10.30;2.93;;;15.70;99.90;;;;;;5034649;28;20471;-80
2024/03/31 11:13:39;;;;;;;9.33;4.10;;;15.70;99.90;;;;;;5040004;28;20507;-83
2024/03/31 11:16:06;;;;;;;5.07;3.37;;;15.70;99.90;;;;;;5037840;28;20482;-79
2024/03/31 11:18:33;;;;;;;9.43;2.50;;;15.80;99.90;;;;;;5039689;28;20475;-81
2024/03/31 11:21:14;;;;;;;8.50;3.03;;;15.80;99.90;;;;;;5038152;28;20481;-80
2024/03/31 11:23:43;;;;;;;5.90;2.80;;;15.80;99.90;;;;;;5035737;28;20683;-82
2024/03/31 11:26:09;;;;;;;13.43;3.63;;;15.80;99.90;;;;;;5019615;28;21060;-80
2024/03/31 11:28:37;;;;;;;13.53;3.23;;;15.80;99.90;;;;;;5034644;28;20467;-81
2024/03/31 11:31:06;;;;;;;10.47;2.80;;;15.80;99.90;;;;;;5038736;28;20852;-80
2024/03/31 11:33:33;;;;;;;12.53;3.63;;;15.80;99.90;;;;;;5018518;28;20459;-80
2024/03/31 11:36:00;;;;;;;8.00;3.10;;;15.90;99.90;;;;;;5040085;28;21285;-81
2024/03/31 11:38:27;;;;;;;7.27;3.87;;;15.90;99.90;;;;;;5034863;28;20828;-81
2024/03/31 11:40:55;;;;;;;10.80;3.00;;;15.90;99.90;;;;;;5035573;28;20474;-83
2024/03/31 11:43:22;;;;;;;6.50;3.97;;;15.90;99.90;;;;;;5038270;28;20766;-80
2024/03/31 11:45:49;;;;;;;6.70;3.17;;;16.10;99.90;;;;;;5037380;28;21008;-82
2024/03/31 11:48:16;;;;;;;10.83;3.03;;;16.10;99.90;;;;;;5033514;28;20527;-81
2024/03/31 11:50:42;;;;;;;11.73;3.10;;;16.20;99.90;;;;;;5035774;28;20580;-79
2024/03/31 11:53:09;;;;;;;11.00;3.00;;;16.30;99.90;;;;;;5036124;28;20572;-80
2024/03/31 11:55:39;;;;;;;13.43;3.10;;;16.20;99.90;;;;;;5035895;28;20498;-81
2024/03/31 11:58:08;;;;;;;7.97;3.00;;;16.40;99.90;;;;;;5038379;28;20490;-81
2024/03/31 12:00:36;;;;;;;8.00;3.17;;;16.40;99.90;;;;;;5021305;28;20474;-80
2024/03/31 12:03:07;;;;;;;10.73;3.40;;;16.40;99.90;;;;;;5039543;28;20528;-82
2024/03/31 12:05:36;;;;;;;5.53;3.00;;;16.30;99.90;;;;;;5038812;28;20466;-82
2024/03/31 12:08:05;;;;;;;9.60;3.17;;;16.40;99.90;;;;;;5033998;28;20474;-80
2024/03/31 12:10:31;;;;;;;11.53;2.90;;;16.40;99.90;;;;;;5037395;28;20509;-81
2024/03/31 12:12:59;;;;;;;10.87;4.43;;;16.40;99.90;;;;;;5037489;28;20970;-81
2024/03/31 12:15:26;;;;;;;13.30;3.43;;;16.40;99.90;;;;;;5034626;28;21237;-80
2024/03/31 12:17:58;;;;;;;12.00;4.20;;;16.40;99.90;;;;;;5039367;28;20582;-83
2024/03/31 12:20:25;;;;;;;12.57;2.80;;;16.40;99.90;;;;;;5037149;28;20551;-80
2024/03/31 12:22:52;;;;;;;6.73;3.20;;;16.40;99.90;;;;;;5037711;28;20598;-80
2024/03/31 12:25:19;;;;;;;7.40;3.17;;;16.40;99.90;;;;;;5035510;28;20956;-81
2024/03/31 12:27:47;;;;;;;14.40;3.57;;;16.40;99.90;;;;;;5033203;28;20913;-83
2024/03/31 12:30:13;;;;;;;10.73;3.10;;;16.40;99.90;;;;;;5020141;28;20553;-79
2024/03/31 12:32:42;;;;;;;8.83;3.50;;;16.40;99.90;;;;;;5038241;28;20456;-80
2024/03/31 12:35:08;;;;;;;10.43;4.40;;;16.40;99.90;;;;;;5038526;28;20953;-81
2024/03/31 12:37:38;;;;;;;7.40;2.97;;;16.40;99.90;;;;;;5036765;28;20476;-81
2024/03/31 12:40:06;;;;;;;11.43;3.40;;;16.50;99.90;;;;;;5037638;28;20443;-80
2024/03/31 12:42:38;;;;;;;19.00;3.50;;;16.50;99.90;;;;;;5037954;28;20480;-80